Time;durP1;ratioP1;P1;durP2;ratioP2;P2;SDS_P1;SDS_P2;PMS_P1;PMS_P2;Temp;Humidity;BMP_temperature;BMP_pressure;BME280_temperature;BME280_humidity;BME280_pressure;Samples;Min_cycle;Max_cycle;Signal;HPM_P1;HPM_P2
2024/02/15 00:00:11;;;;;;;11.77;8.50;;;;;;;-145.63;52.47;38838.47;5013653;28;20049;-63
2024/02/15 00:02:36;;;;;;;16.33;7.53;;;;;;;-145.63;52.84;38877.56;5029027;28;20069;-67
2024/02/15 00:05:02;;;;;;;14.35;8.43;;;;;;;-145.63;53.19;38816.97;5022241;28;20068;-65
2024/02/15 00:07:29;;;;;;;13.02;8.70;;;;;;;-145.63;53.53;38838.47;5029988;28;20103;-65
2024/02/15 00:09:55;;;;;;;19.45;9.10;;;;;;;-145.63;53.75;38842.38;5064980;28;20025;-64
2024/02/15 00:12:21;;;;;;;13.50;8.02;;;;;;;-145.63;53.93;38828.69;5033145;28;20025;-64
2024/02/15 00:14:47;;;;;;;16.13;7.93;;;;;;;-145.63;54.07;38858.03;5032539;28;20458;-65
2024/02/15 00:17:13;;;;;;;17.88;8.98;;;;;;;-145.63;54.70;38824.78;5044420;28;20482;-64
2024/02/15 00:19:39;;;;;;;14.68;8.65;;;;;;;-145.63;55.13;38816.97;5045782;28;20033;-63
2024/02/15 00:22:05;;;;;;;13.00;8.13;;;;;;;-145.63;54.77;38760.25;5033201;28;20482;-64
2024/02/15 00:24:31;;;;;;;13.45;8.15;;;;;;;-145.63;54.50;38801.31;5033984;28;20109;-67
2024/02/15 00:26:57;;;;;;;14.68;8.43;;;;;;;-145.63;54.47;38824.78;5032964;28;20037;-65
2024/02/15 00:29:23;;;;;;;13.48;8.43;;;;;;;-145.63;54.73;38846.28;5019924;28;20088;-64
2024/02/15 00:31:49;;;;;;;13.48;8.50;;;;;;;-145.63;54.62;38813.03;5030486;28;20092;-63
2024/02/15 00:34:16;;;;;;;15.35;8.40;;;;;;;-145.63;54.58;38844.34;5028813;28;20049;-64
2024/02/15 00:36:43;;;;;;;12.45;8.40;;;;;;;-145.63;54.38;38799.34;5023296;28;20072;-65
2024/02/15 00:39:11;;;;;;;12.27;7.10;;;;;;;-145.63;54.51;38852.16;5031403;28;20030;-63
2024/02/15 00:41:41;;;;;;;9.90;6.00;;;;;;;-145.63;54.27;38809.13;5032983;28;20037;-64
2024/02/15 00:44:10;;;;;;;9.45;7.38;;;;;;;-145.63;54.24;38813.03;5021902;28;20045;-64
2024/02/15 00:46:36;;;;;;;12.32;7.00;;;;;;;-145.63;54.09;38824.78;5020574;28;20113;-66
2024/02/15 00:49:06;;;;;;;11.10;7.25;;;;;;;-145.63;54.00;38805.22;5034497;28;20029;-65
2024/02/15 00:51:35;;;;;;;13.25;7.40;;;;;;;-145.63;53.96;38830.66;5036021;28;20032;-64
2024/02/15 00:54:02;;;;;;;14.18;7.95;;;;;;;-145.63;53.74;38791.53;5036691;28;20478;-65
2024/02/15 00:56:30;;;;;;;12.23;6.97;;;;;;;-145.63;53.09;38848.25;5022833;28;20061;-65
2024/02/15 00:58:57;;;;;;;11.52;6.90;;;;;;;-145.63;53.36;38824.78;5026019;28;20029;-65
2024/02/15 01:01:23;;;;;;;11.35;7.43;;;;;;;-145.63;53.51;38756.34;5031643;28;20061;-64
2024/02/15 01:03:48;;;;;;;12.77;7.60;;;;;;;-145.63;53.35;38820.88;5015423;28;20033;-63
2024/02/15 01:06:14;;;;;;;9.95;6.70;;;;;;;-145.63;53.57;38824.78;5036262;28;20120;-64
2024/02/15 01:08:40;;;;;;;12.73;7.10;;;;;;;-145.63;53.66;38816.97;5036485;28;20030;-64
2024/02/15 01:11:06;;;;;;;9.50;6.78;;;;;;;-145.63;53.75;38830.66;5036539;28;20394;-64
2024/02/15 01:13:32;;;;;;;11.02;7.18;;;;;;;-145.63;53.82;38799.34;5036521;28;20100;-64
2024/02/15 01:15:58;;;;;;;12.02;7.60;;;;;;;-145.63;53.70;38781.75;5034828;28;20038;-64
2024/02/15 01:18:23;;;;;;;12.27;8.05;;;;;;;-145.63;54.22;38816.97;5016404;28;20464;-64
2024/02/15 01:20:49;;;;;;;10.15;7.25;;;;;;;-145.63;54.11;38813.03;5033067;28;20121;-63
2024/02/15 01:23:15;;;;;;;14.88;7.32;;;;;;;-145.63;54.24;38820.88;5035593;28;20034;-63
2024/02/15 01:25:41;;;;;;;11.73;7.07;;;;;;;-145.63;54.33;38836.50;5029701;28;20080;-64
2024/02/15 01:28:06;;;;;;;11.95;7.63;;;;;;;-145.63;54.58;38791.53;5018351;28;20502;-63
2024/02/15 01:30:32;;;;;;;11.35;7.20;;;;;;;-145.63;54.33;38785.66;5035614;28;20458;-64
2024/02/15 01:32:58;;;;;;;12.82;7.93;;;;;;;-145.63;54.34;38820.88;5035892;28;20037;-64
2024/02/15 01:35:25;;;;;;;13.80;6.93;;;;;;;-145.63;54.60;38809.13;5022894;28;20503;-64
2024/02/15 01:37:50;;;;;;;11.32;6.55;;;;;;;-145.63;54.85;38801.31;5024462;28;20065;-63
2024/02/15 01:40:16;;;;;;;11.45;7.35;;;;;;;-145.63;55.27;38826.72;5032588;28;20076;-64
2024/02/15 01:42:45;;;;;;;12.90;8.52;;;;;;;-145.63;54.95;38805.22;5016255;28;20089;-64
2024/02/15 01:45:11;;;;;;;13.13;6.88;;;;;;;-145.63;54.62;38824.78;5034519;28;20033;-64
2024/02/15 01:47:40;;;;;;;12.20;7.53;;;;;;;-145.63;54.95;38824.78;5021142;28;20026;-65
2024/02/15 01:50:07;;;;;;;12.13;7.55;;;;;;;-145.63;54.75;38822.81;5028624;28;20034;-64
2024/02/15 01:52:34;;;;;;;15.23;8.32;;;;;;;-145.63;55.05;38803.28;5035522;28;20029;-64
2024/02/15 01:55:07;;;;;;;12.70;7.82;;;;;;;-145.63;54.76;38803.28;5016897;28;20108;-64
2024/02/15 01:57:34;;;;;;;11.85;6.93;;;;;;;-145.63;54.71;38816.97;5035301;28;20026;-64
2024/02/15 02:00:00;;;;;;;11.45;7.00;;;;;;;-145.63;55.09;38820.88;5017494;28;20081;-64
2024/02/15 02:02:32;;;;;;;12.93;8.50;;;;;;;-145.63;54.89;38801.31;5028527;28;20036;-65
2024/02/15 02:04:58;;;;;;;14.40;8.60;;;;;;;-145.63;54.76;38826.72;5025940;28;20025;-63
2024/02/15 02:07:24;;;;;;;12.10;8.13;;;;;;;-145.63;54.98;38779.81;5043569;28;20591;-64
2024/02/15 02:09:49;;;;;;;15.15;7.78;;;;;;;-145.63;54.72;38811.09;5046980;28;20364;-64
2024/02/15 02:12:16;;;;;;;12.27;7.65;;;;;;;-145.63;55.09;38805.22;5035209;28;20045;-65
2024/02/15 02:14:42;;;;;;;14.15;9.13;;;;;;;-145.63;54.89;38791.53;5034823;28;20045;-64
2024/02/15 02:17:12;;;;;;;12.63;7.82;;;;;;;-145.63;55.21;38791.53;5024617;28;20042;-65
2024/02/15 02:19:38;;;;;;;12.23;8.35;;;;;;;-145.63;55.30;38813.03;5021273;28;20049;-63
2024/02/15 02:22:05;;;;;;;12.90;8.02;;;;;;;-145.63;55.11;38793.50;5026224;28;20491;-63
2024/02/15 02:24:37;;;;;;;13.50;7.72;;;;;;;-145.63;55.11;38801.31;5035211;28;20094;-63
2024/02/15 02:27:07;;;;;;;14.35;9.05;;;;;;;-145.63;55.08;38813.03;5017138;28;20042;-64
2024/02/15 02:29:34;;;;;;;14.00;8.40;;;;;;;-145.63;55.03;38813.03;5029087;28;20072;-62
2024/02/15 02:31:59;;;;;;;13.02;8.65;;;;;;;-145.63;55.22;38824.78;5035084;28;20497;-64
2024/02/15 02:34:25;;;;;;;13.50;8.18;;;;;;;-145.63;55.13;38797.41;5035040;28;20038;-63
2024/02/15 02:36:51;;;;;;;14.75;8.85;;;;;;;-145.63;54.83;38816.97;5034691;28;20677;-63
2024/02/15 02:39:17;;;;;;;15.80;8.88;;;;;;;-145.63;54.72;38816.97;5034471;28;20688;-63
2024/02/15 02:41:43;;;;;;;12.85;8.13;;;;;;;-145.63;54.69;38797.41;5049822;28;20029;-64
2024/02/15 02:44:09;;;;;;;11.32;7.72;;;;;;;-145.63;55.19;38816.97;5044914;28;20352;-63
2024/02/15 02:46:35;;;;;;;15.07;8.30;;;;;;;-145.63;55.21;38787.63;5029219;28;20467;-62
2024/02/15 02:49:01;;;;;;;12.90;7.65;;;;;;;-145.63;55.06;38801.31;5015865;28;20835;-64
2024/02/15 02:51:27;;;;;;;12.10;8.55;;;;;;;-145.63;55.12;38828.69;5034772;28;20029;-63
2024/02/15 02:53:52;;;;;;;12.57;8.43;;;;;;;-145.63;54.78;38813.03;5035055;28;20030;-64
2024/02/15 02:56:18;;;;;;;12.73;8.30;;;;;;;-145.63;55.01;38816.97;5022014;28;20034;-64
2024/02/15 02:58:44;;;;;;;13.27;8.82;;;;;;;-145.63;54.82;38805.22;5021674;28;20399;-64
2024/02/15 03:01:11;;;;;;;11.57;7.85;;;;;;;-145.63;54.74;38826.72;5032576;28;20427;-64
2024/02/15 03:03:38;;;;;;;13.65;9.05;;;;;;;-145.63;55.03;38820.88;5014636;28;20434;-62
2024/02/15 03:06:04;;;;;;;13.85;9.20;;;;;;;-145.63;55.09;38785.66;5031199;28;20091;-63
2024/02/15 03:08:30;;;;;;;16.17;8.65;;;;;;;-145.63;55.14;38809.13;5034278;28;20036;-66
2024/02/15 03:10:56;;;;;;;13.05;8.00;;;;;;;-145.63;55.48;38816.97;5033138;28;20037;-63
2024/02/15 03:13:21;;;;;;;15.48;8.00;;;;;;;-145.63;55.50;38785.66;5030278;28;20061;-65
2024/02/15 03:15:47;;;;;;;11.85;7.95;;;;;;;-145.63;55.54;38770.03;5014105;28;20069;-66
2024/02/15 03:18:17;;;;;;;13.13;7.88;;;;;;;-145.63;55.17;38789.59;5032392;28;20034;-63
2024/02/15 03:20:43;;;;;;;13.05;7.38;;;;;;;-145.63;55.38;38773.94;5033579;28;20041;-65
2024/02/15 03:23:09;;;;;;;15.63;9.10;;;;;;;-145.63;55.42;38850.19;5026861;28;20044;-66
2024/02/15 03:25:35;;;;;;;11.48;8.32;;;;;;;-145.63;55.41;38820.88;5029372;28;20034;-64
2024/02/15 03:28:03;;;;;;;10.95;7.72;;;;;;;-145.63;54.78;38799.34;5014609;28;20030;-64
2024/02/15 03:30:31;;;;;;;14.65;8.63;;;;;;;-145.63;54.92;38820.88;5033673;28;20040;-64
2024/02/15 03:33:00;;;;;;;12.48;8.85;;;;;;;-145.63;55.08;38811.09;5033794;28;20034;-63
2024/02/15 03:35:31;;;;;;;12.90;8.68;;;;;;;-145.63;55.03;38818.91;5021660;28;20037;-63
2024/02/15 03:37:57;;;;;;;12.52;8.75;;;;;;;-145.63;54.66;38840.44;5021500;28;20117;-63
2024/02/15 03:40:26;;;;;;;15.23;8.68;;;;;;;-145.63;55.15;38805.22;5030393;28;20045;-63
2024/02/15 03:42:52;;;;;;;14.00;8.82;;;;;;;-145.63;54.99;38789.59;5014135;28;20030;-64
2024/02/15 03:45:18;;;;;;;14.95;8.20;;;;;;;-145.63;55.08;38805.22;5032404;28;20763;-64
2024/02/15 03:47:45;;;;;;;11.35;7.70;;;;;;;-145.63;54.88;38793.50;5019249;28;20104;-63
2024/02/15 03:50:11;;;;;;;11.82;7.93;;;;;;;-145.63;55.46;38770.03;5023598;28;20047;-64
2024/02/15 03:52:38;;;;;;;13.65;9.18;;;;;;;-145.63;54.92;38799.34;5033406;28;20041;-64
2024/02/15 03:55:06;;;;;;;12.82;8.32;;;;;;;-145.63;54.77;38809.13;5032328;28;20087;-63
2024/02/15 03:57:34;;;;;;;13.85;8.63;;;;;;;-145.63;54.82;38811.09;5014278;28;20110;-65
2024/02/15 04:00:00;;;;;;;15.50;9.20;;;;;;;-145.63;54.94;38758.28;5027161;28;20108;-64
2024/02/15 04:02:26;;;;;;;13.15;8.05;;;;;;;-145.63;54.71;38795.44;5025036;28;20088;-63
2024/02/15 04:04:55;;;;;;;12.35;8.75;;;;;;;-145.63;55.06;38789.59;5026441;28;20053;-66
2024/02/15 04:07:24;;;;;;;15.27;8.85;;;;;;;-145.63;55.13;38781.75;5029203;28;20087;-65
2024/02/15 04:09:50;;;;;;;11.18;8.23;;;;;;;-145.63;55.12;38781.75;5033275;28;20079;-63
2024/02/15 04:12:16;;;;;;;11.40;8.60;;;;;;;-145.63;55.47;38816.97;5032984;28;20029;-64
2024/02/15 04:14:46;;;;;;;14.13;9.13;;;;;;;-145.63;55.16;38805.22;5047287;28;20043;-63
2024/02/15 04:17:16;;;;;;;11.63;7.82;;;;;;;-145.63;55.25;38785.66;5042381;28;20112;-63
2024/02/15 04:19:44;;;;;;;12.10;8.48;;;;;;;-145.63;54.95;38750.47;5027793;28;20026;-63
2024/02/15 04:22:10;;;;;;;12.82;8.63;;;;;;;-145.63;55.03;38818.91;5027283;28;20054;-63
2024/02/15 04:24:39;;;;;;;13.98;8.23;;;;;;;-145.63;55.30;38801.31;5033129;28;20112;-64
2024/02/15 04:27:11;;;;;;;14.30;8.57;;;;;;;-145.63;55.38;38816.97;5015684;28;20061;-65
2024/02/15 04:29:40;;;;;;;13.68;8.13;;;;;;;-145.63;55.09;38793.50;5025460;28;20048;-62
2024/02/15 04:32:11;;;;;;;16.02;9.27;;;;;;;-145.63;54.85;38818.91;5032504;28;20045;-64
2024/02/15 04:34:37;;;;;;;14.18;9.35;;;;;;;-145.63;55.38;38854.13;5027989;28;20122;-64
2024/02/15 04:37:06;;;;;;;11.43;8.63;;;;;;;-145.63;55.22;38791.53;5024201;28;20033;-64
2024/02/15 04:39:35;;;;;;;14.00;8.55;;;;;;;-145.63;54.97;38811.09;5032927;28;20026;-63
2024/02/15 04:42:04;;;;;;;13.25;8.38;;;;;;;-145.63;54.74;38805.22;5048979;28;20158;-63
2024/02/15 04:44:34;;;;;;;17.75;8.52;;;;;;;-145.63;55.07;38773.94;5040542;28;20132;-66
2024/02/15 04:47:03;;;;;;;14.88;9.73;;;;;;;-145.63;55.01;38797.41;5032319;28;20098;-64
2024/02/15 04:49:29;;;;;;;12.25;7.38;;;;;;;-145.63;55.03;38820.88;5038304;28;20036;-64
2024/02/15 04:51:57;;;;;;;11.02;7.70;;;;;;;-145.63;54.67;38811.09;5028300;28;20026;-62
2024/02/15 04:54:23;;;;;;;11.95;8.23;;;;;;;-145.63;54.90;38803.28;5035389;28;20029;-63
2024/02/15 04:56:50;;;;;;;15.40;9.57;;;;;;;-145.63;54.89;38803.28;5023147;28;20030;-62
2024/02/15 04:59:16;;;;;;;14.45;8.85;;;;;;;-145.63;55.15;38805.22;5022641;28;20129;-64
2024/02/15 05:01:45;;;;;;;14.15;9.40;;;;;;;-145.63;54.99;38820.88;5032683;28;20045;-63
2024/02/15 05:04:11;;;;;;;15.35;9.50;;;;;;;-145.63;55.11;38826.72;5031998;28;20030;-65
2024/02/15 05:06:38;;;;;;;14.25;8.73;;;;;;;-145.63;54.87;38799.34;5030955;28;20040;-63
2024/02/15 05:09:10;;;;;;;14.68;10.02;;;;;;;-145.63;56.21;38836.50;5035862;28;20041;-62
2024/02/15 05:11:36;;;;;;;14.60;9.25;;;;;;;-145.63;55.41;38801.31;5032809;28;20021;-64
2024/02/15 05:14:06;;;;;;;14.23;9.68;;;;;;;-145.63;55.84;38858.03;5032640;28;20037;-65
2024/02/15 05:16:41;;;;;;;14.93;9.48;;;;;;;-145.63;55.39;38805.22;5029058;28;20042;-65
2024/02/15 05:19:11;;;;;;;16.88;9.88;;;;;;;-145.63;55.78;38791.53;5012771;28;20030;-65
2024/02/15 05:21:37;;;;;;;14.05;9.27;;;;;;;-145.63;55.37;38793.50;5031677;28;20423;-65
2024/02/15 05:24:06;;;;;;;11.38;6.97;;;;;;;-145.63;55.38;38791.53;5032677;28;20041;-65
2024/02/15 05:26:32;;;;;;;15.73;9.57;;;;;;;-145.63;55.84;38781.75;5020844;28;20045;-66
2024/02/15 05:28:57;;;;;;;15.70;9.93;;;;;;;-145.63;55.90;38787.63;5019390;28;20387;-64
2024/02/15 05:31:25;;;;;;;12.75;9.25;;;;;;;-145.63;55.32;38801.31;5032688;28;20042;-66
2024/02/15 05:33:53;;;;;;;15.10;8.88;;;;;;;-145.63;56.08;38791.53;5034334;28;20130;-66
2024/02/15 05:36:20;;;;;;;14.77;9.85;;;;;;;-145.63;56.09;38813.03;5017578;28;20025;-66
2024/02/15 05:38:47;;;;;;;15.32;9.13;;;;;;;-145.63;55.84;38834.56;5029430;28;20167;-64
2024/02/15 05:41:13;;;;;;;16.60;9.45;;;;;;;-145.63;55.72;38781.75;5034604;28;20034;-65
2024/02/15 05:43:41;;;;;;;15.30;8.55;;;;;;;-145.63;55.49;38815.00;5035811;28;20036;-65
2024/02/15 05:46:07;;;;;;;16.52;10.05;;;;;;;-145.63;56.13;38818.91;5035299;28;20412;-64
2024/02/15 05:48:36;;;;;;;14.02;9.23;;;;;;;-145.63;55.57;38815.00;5015547;28;20042;-65
2024/02/15 05:51:03;;;;;;;15.32;9.45;;;;;;;-145.63;55.60;38785.66;5031535;28;20404;-65
2024/02/15 05:53:29;;;;;;;14.57;9.18;;;;;;;-145.63;55.13;38783.72;5035525;28;20045;-65
2024/02/15 05:55:57;;;;;;;18.23;10.25;;;;;;;-145.63;55.50;38770.03;5037898;28;20064;-65
2024/02/15 05:58:24;;;;;;;13.38;9.02;;;;;;;-145.63;55.34;38773.94;5037489;28;20053;-66
2024/02/15 06:00:50;;;;;;;14.45;10.25;;;;;;;-145.63;55.30;38758.28;5055827;28;20378;-64
2024/02/15 06:03:18;;;;;;;13.35;8.85;;;;;;;-145.63;55.03;38779.81;5037755;28;20045;-65
2024/02/15 06:05:44;;;;;;;13.70;9.32;;;;;;;-145.63;54.96;38787.63;5022307;28;20057;-65
2024/02/15 06:08:13;;;;;;;14.18;8.77;;;;;;;-145.63;54.86;38779.81;5024729;28;20029;-65
2024/02/15 06:10:40;;;;;;;15.30;8.43;;;;;;;-145.63;54.90;38781.75;5035320;28;20040;-66
2024/02/15 06:13:08;;;;;;;14.02;8.52;;;;;;;-145.63;54.85;38773.94;5035376;28;20664;-66
2024/02/15 06:15:34;;;;;;;11.98;8.48;;;;;;;-145.63;55.13;38762.22;5015474;28;20034;-66
2024/02/15 06:17:59;;;;;;;13.25;8.05;;;;;;;-145.63;55.05;38785.66;5030478;28;20025;-65
2024/02/15 06:20:28;;;;;;;15.98;9.85;;;;;;;-145.63;55.50;38768.06;5025076;28;20378;-65
2024/02/15 06:22:56;;;;;;;11.60;8.15;;;;;;;-145.63;54.80;38746.56;5021776;28;20439;-66
2024/02/15 06:25:23;;;;;;;12.90;8.55;;;;;;;-145.63;55.07;38783.72;5033382;28;20466;-65
2024/02/15 06:27:51;;;;;;;12.15;7.95;;;;;;;-145.63;55.14;38766.13;5034662;28;20068;-66
2024/02/15 06:41:13;;;;;;;13.88;9.05;;;;;;;-145.63;55.63;38766.13;5032381;28;20079;-65
2024/02/15 06:43:43;;;;;;;16.17;9.63;;;;;;;-145.63;55.34;38748.50;5034756;28;20375;-66
2024/02/15 06:46:10;;;;;;;13.55;8.70;;;;;;;-145.63;55.07;38762.22;5033108;28;20443;-65
2024/02/15 06:48:36;;;;;;;14.20;8.98;;;;;;;-145.63;55.03;38768.06;5014949;28;20080;-64
2024/02/15 06:51:03;;;;;;;12.93;8.60;;;;;;;-145.63;55.16;38746.56;5029664;28;20113;-65
2024/02/15 06:53:30;;;;;;;13.05;8.02;;;;;;;-145.63;55.30;38779.81;5034509;28;20057;-65
2024/02/15 06:55:56;;;;;;;12.82;8.30;;;;;;;-145.63;54.79;38762.22;5032004;28;20110;-64
2024/02/15 06:58:22;;;;;;;12.82;8.95;;;;;;;-145.63;54.83;38777.84;5036002;28;20053;-67
2024/02/15 07:00:48;;;;;;;13.00;8.70;;;;;;;-145.63;54.53;38760.25;5054604;28;20072;-65
2024/02/15 07:03:13;;;;;;;14.70;8.63;;;;;;;-145.63;54.72;38766.13;5036942;28;20399;-67
2024/02/15 07:05:40;;;;;;;15.40;9.70;;;;;;;-145.63;54.55;38750.47;5022237;28;20029;-67
2024/02/15 07:08:10;;;;;;;15.02;8.82;;;;;;;-145.63;54.51;38762.22;5029440;28;20033;-67
2024/02/15 07:10:38;;;;;;;12.80;7.90;;;;;;;-145.63;54.81;38754.38;5049683;28;20117;-68
2024/02/15 07:13:04;;;;;;;12.27;7.97;;;;;;;-145.63;54.53;38766.13;5034327;28;20045;-69
2024/02/15 07:15:32;;;;;;;14.77;9.18;;;;;;;-145.63;54.36;38764.16;5033963;28;20036;-65
2024/02/15 07:17:58;;;;;;;15.30;9.43;;;;;;;-145.63;54.44;38760.25;5019588;28;20036;-69
2024/02/15 07:20:25;;;;;;;15.35;8.45;;;;;;;-145.63;54.51;38764.16;5024478;28;20120;-67
2024/02/15 07:22:51;;;;;;;12.55;8.32;;;;;;;-145.63;54.54;38754.38;5029445;28;20825;-68
2024/02/15 07:25:17;;;;;;;12.55;8.85;;;;;;;-145.63;54.79;38758.28;5014556;28;20113;-68
2024/02/15 07:27:43;;;;;;;14.73;8.88;;;;;;;-145.63;54.22;38777.84;5034111;28;20025;-66
2024/02/15 07:30:13;;;;;;;16.83;8.65;;;;;;;-145.63;54.23;38789.59;5021165;28;20044;-69
2024/02/15 07:32:38;;;;;;;17.35;9.32;;;;;;;-145.63;54.20;38777.84;5032922;28;20053;-66
2024/02/15 07:35:07;;;;;;;15.73;9.82;;;;;;;-145.63;54.53;38770.03;5033449;28;20049;-64
2024/02/15 07:37:33;;;;;;;17.85;9.60;;;;;;;-145.63;54.64;38771.97;5025949;28;20026;-65
2024/02/15 07:39:59;;;;;;;13.25;9.18;;;;;;;-145.63;54.18;38750.47;5021063;28;20451;-65
2024/02/15 07:42:25;;;;;;;15.85;9.93;;;;;;;-145.63;54.55;38762.22;5031879;28;20040;-66
2024/02/15 07:44:52;;;;;;;14.75;9.40;;;;;;;-145.63;54.24;38762.22;5020563;28;20040;-64
2024/02/15 07:47:20;;;;;;;13.95;9.18;;;;;;;-145.63;54.02;38730.91;5029430;28;20029;-65
2024/02/15 07:49:46;;;;;;;17.25;9.93;;;;;;;-145.63;53.86;38748.50;5033487;28;20116;-65
2024/02/15 07:52:13;;;;;;;15.50;9.85;;;;;;;-145.63;54.16;38748.50;5053333;28;20025;-64
2024/02/15 07:54:39;;;;;;;17.73;9.45;;;;;;;-145.63;54.05;38721.13;5033692;28;20056;-66
2024/02/15 07:57:05;;;;;;;14.77;8.63;;;;;;;-145.63;53.94;38709.41;5031607;28;20016;-64
2024/02/15 07:59:30;;;;;;;14.13;8.65;;;;;;;-145.63;54.04;38758.28;5033341;28;20029;-66
2024/02/15 08:01:56;;;;;;;13.80;9.15;;;;;;;-145.63;53.94;38746.56;5030486;28;20033;-65
2024/02/15 08:04:23;;;;;;;14.57;9.38;;;;;;;-145.63;53.06;38795.44;5031131;28;20037;-66
2024/02/15 08:06:48;;;;;;;13.90;9.02;;;;;;;-145.63;51.75;38754.38;5024837;28;20035;-66
2024/02/15 08:09:17;;;;;;;14.85;9.05;;;;;;;-145.63;52.30;38748.50;5032915;28;20030;-66
2024/02/15 08:11:44;;;;;;;14.40;9.32;;;;;;;-145.63;52.87;38795.44;5032913;28;20036;-66
2024/02/15 08:14:10;;;;;;;14.60;8.32;;;;;;;-145.63;52.29;38754.38;5026174;28;20437;-66
2024/02/15 08:16:40;;;;;;;13.70;8.70;;;;;;;-145.63;52.50;38756.34;5023493;28;20367;-66
2024/02/15 08:19:06;;;;;;;14.32;8.60;;;;;;;-145.63;52.92;38771.97;5033438;28;20098;-66
2024/02/15 08:21:35;;;;;;;16.48;9.43;;;;;;;-145.63;52.75;38773.94;5015300;28;20034;-65
2024/02/15 08:24:11;;;;;;;14.43;8.40;;;;;;;-145.63;53.17;38727.00;5027827;28;20041;-66
2024/02/15 08:26:41;;;;;;;14.80;8.40;;;;;;;-145.63;53.07;38750.47;5022076;28;20041;-64
2024/02/15 08:29:07;;;;;;;14.90;9.02;;;;;;;-145.63;52.81;38754.38;5026429;28;20047;-65
2024/02/15 08:31:33;;;;;;;10.68;7.13;;;;;;;-145.63;52.69;38746.56;5036167;28;20045;-66
2024/02/15 08:34:00;;;;;;;15.70;9.52;;;;;;;-145.63;52.99;38738.75;5028313;28;20069;-68
2024/02/15 08:36:26;;;;;;;20.85;10.48;;;;;;;-145.63;52.52;38740.69;5030060;28;20068;-67
2024/02/15 08:38:52;;;;;;;14.63;9.30;;;;;;;-145.63;51.90;38736.78;5033203;28;20447;-67
2024/02/15 08:41:18;;;;;;;15.30;9.10;;;;;;;-145.63;52.01;38738.75;5024847;28;20030;-64
2024/02/15 08:43:48;;;;;;;15.05;9.75;;;;;;;-145.63;52.53;38730.91;5020286;28;20039;-67
2024/02/15 08:46:14;;;;;;;17.73;11.25;;;;;;;-145.63;52.39;38717.22;5052468;28;20116;-67
2024/02/15 08:48:40;;;;;;;17.70;9.45;;;;;;;-145.63;52.70;38760.25;5033107;28;20537;-66
2024/02/15 08:51:08;;;;;;;15.40;10.50;;;;;;;-145.63;52.53;38754.38;5041219;28;20037;-65
2024/02/15 08:53:36;;;;;;;19.60;10.60;;;;;;;-145.63;52.27;38795.44;5032628;28;20659;-65
2024/02/15 08:56:05;;;;;;;18.08;10.00;;;;;;;-145.63;52.50;38764.16;5032172;28;20029;-65
2024/02/15 08:58:30;;;;;;;16.25;10.48;;;;;;;-145.63;52.10;38770.03;5032579;28;20032;-65
2024/02/15 09:00:57;;;;;;;17.17;10.60;;;;;;;-145.63;52.61;38762.22;5031145;28;20035;-64
2024/02/15 09:03:23;;;;;;;18.67;9.45;;;;;;;-145.63;51.85;38746.56;5029535;28;20034;-66
2024/02/15 09:05:48;;;;;;;15.45;9.68;;;;;;;-145.63;52.56;38754.38;5024616;28;20451;-65
2024/02/15 09:08:19;;;;;;;30.85;15.10;;;;;;;-145.63;52.45;38760.25;5033669;28;20030;-65
2024/02/15 09:10:49;;;;;;;16.33;9.90;;;;;;;-145.63;52.13;38793.50;5036697;28;20051;-67
2024/02/15 09:13:15;;;;;;;16.00;9.48;;;;;;;-145.63;51.78;38775.91;5036382;28;20037;-64
2024/02/15 09:15:41;;;;;;;16.60;10.10;;;;;;;-145.63;51.63;38773.94;5035382;28;20025;-65
2024/02/15 09:18:09;;;;;;;16.35;10.43;;;;;;;-145.63;51.21;38766.13;5035304;28;20037;-64
2024/02/15 09:20:37;;;;;;;16.42;10.05;;;;;;;-145.63;51.66;38791.53;5036093;28;20041;-65
2024/02/15 09:23:09;;;;;;;17.58;9.90;;;;;;;-145.63;51.58;38787.63;5030146;28;20029;-65
2024/02/15 09:25:37;;;;;;;18.33;10.38;;;;;;;-145.63;51.22;38811.09;5018388;28;20034;-65
2024/02/15 09:28:03;;;;;;;15.43;9.63;;;;;;;-145.63;51.47;38766.13;5036355;28;20060;-66
2024/02/15 09:30:31;;;;;;;19.60;10.45;;;;;;;-145.63;51.65;38793.50;5031708;28;20077;-65
2024/02/15 09:32:56;;;;;;;14.98;8.98;;;;;;;-145.63;51.73;38793.50;5036005;28;20079;-65
2024/02/15 09:35:22;;;;;;;14.15;9.90;;;;;;;-145.63;51.95;38791.53;5027639;28;20077;-66
2024/02/15 09:37:48;;;;;;;15.55;10.13;;;;;;;-145.63;51.85;38760.25;5020026;28;20057;-65
2024/02/15 09:40:16;;;;;;;13.85;9.23;;;;;;;-145.63;51.81;38770.03;5030635;28;20529;-63
2024/02/15 09:42:44;;;;;;;15.48;9.70;;;;;;;-145.63;51.99;38789.59;5025287;28;20556;-64
2024/02/15 09:45:14;;;;;;;14.25;8.57;;;;;;;-145.63;51.83;38777.84;5020876;28;20029;-66
2024/02/15 09:47:41;;;;;;;16.20;9.60;;;;;;;-145.63;52.57;38764.16;5027031;28;20040;-66
2024/02/15 09:50:14;;;;;;;14.85;9.95;;;;;;;-145.63;51.73;38795.44;5035147;28;20045;-66
2024/02/15 09:52:43;;;;;;;14.98;9.50;;;;;;;-145.63;51.88;38815.00;5038033;28;20128;-65
2024/02/15 09:55:13;;;;;;;14.80;10.50;;;;;;;-145.63;52.06;38777.84;5055537;28;20051;-66
2024/02/15 09:57:47;;;;;;;19.10;10.18;;;;;;;-145.63;51.87;38785.66;5029352;28;20033;-66
2024/02/15 10:00:15;;;;;;;17.75;10.90;;;;;;;-145.63;51.71;38766.13;5030130;28;20029;-64
2024/02/15 10:02:44;;;;;;;17.27;10.88;;;;;;;-145.63;52.21;38773.94;5034562;28;20486;-65
2024/02/15 10:05:11;;;;;;;13.50;8.70;;;;;;;-145.63;51.64;38766.13;5028320;28;20033;-65
2024/02/15 10:07:43;;;;;;;17.65;11.00;;;;;;;-145.63;52.54;38797.41;5017399;28;20057;-67
2024/02/15 10:10:19;;;;;;;18.48;10.63;;;;;;;-145.63;52.35;38760.25;5034834;28;20383;-65
2024/02/15 10:12:48;;;;;;;16.42;10.32;;;;;;;-145.63;51.51;38793.50;5016155;28;20156;-65
2024/02/15 10:15:35;;;;;;;19.02;10.77;;;;;;;-145.63;52.00;38775.91;5030531;28;20041;-65
2024/02/15 10:18:07;;;;;;;15.48;8.68;;;;;;;-145.63;51.79;38801.31;5028461;28;20037;-65
2024/02/15 10:20:34;;;;;;;21.52;12.00;;;;;;;-145.63;52.37;38791.53;5044168;28;20033;-66
2024/02/15 10:22:59;;;;;;;17.13;10.40;;;;;;;-145.63;51.94;38793.50;5050320;28;20018;-66
2024/02/15 10:25:28;;;;;;;16.10;10.15;;;;;;;-145.63;52.25;38775.91;5035043;28;20052;-66
2024/02/15 10:28:07;;;;;;;19.13;10.63;;;;;;;-145.63;51.77;38779.81;5015533;28;20022;-65
2024/02/15 10:30:45;;;;;;;18.85;10.90;;;;;;;-145.63;51.38;38805.22;5043047;28;20044;-64
2024/02/15 10:33:20;;;;;;;16.35;10.60;;;;;;;-145.63;51.37;38803.28;5035173;28;20049;-65
2024/02/15 10:35:45;;;;;;;16.65;10.05;;;;;;;-145.63;51.43;38771.97;5046003;28;20062;-65
2024/02/15 10:38:13;;;;;;;18.88;10.80;;;;;;;-145.63;51.68;38775.91;5048451;28;20068;-65
2024/02/15 10:40:43;;;;;;;14.80;8.73;;;;;;;-145.63;51.46;38793.50;5033575;28;20033;-66
2024/02/15 10:43:12;;;;;;;16.35;10.50;;;;;;;-145.63;50.83;38773.94;5014834;28;20113;-65
2024/02/15 10:45:39;;;;;;;15.80;9.98;;;;;;;-145.63;51.17;38766.13;5051376;28;20044;-66
2024/02/15 10:48:12;;;;;;;17.75;9.82;;;;;;;-145.63;51.62;38785.66;5045800;28;20033;-65
2024/02/15 10:50:46;;;;;;;17.30;9.10;;;;;;;-145.63;51.43;38768.06;5034620;28;20035;-64
2024/02/15 10:53:24;;;;;;;16.13;10.10;;;;;;;-145.63;51.30;38816.97;5034161;28;20037;-64
2024/02/15 10:56:19;;;;;;;16.17;9.48;;;;;;;-145.63;51.01;38779.81;5031315;28;20025;-65
2024/02/15 10:58:55;;;;;;;16.25;9.80;;;;;;;-145.63;51.37;38793.50;5016476;28;20084;-65
2024/02/15 11:01:22;;;;;;;14.85;9.52;;;;;;;-145.63;50.48;38766.13;5034318;28;20033;-64
2024/02/15 11:03:58;;;;;;;16.88;10.38;;;;;;;-145.63;50.80;38756.34;5043892;28;20052;-65
2024/02/15 11:06:28;;;;;;;15.13;10.52;;;;;;;-145.63;51.06;38840.44;5046448;28;20040;-65
2024/02/15 11:08:55;;;;;;;19.73;11.18;;;;;;;-145.63;51.08;38809.13;5036165;28;20132;-64
2024/02/15 11:11:21;;;;;;;18.92;10.52;;;;;;;-145.63;51.37;38820.88;5031945;28;20113;-66
2024/02/15 11:13:50;;;;;;;14.75;9.10;;;;;;;-145.63;51.69;38764.16;5030728;28;20360;-65
2024/02/15 11:16:42;;;;;;;19.50;10.45;;;;;;;-145.63;51.96;38764.16;5023502;28;20560;-65
2024/02/15 11:19:10;;;;;;;17.75;11.05;;;;;;;-145.63;51.92;38771.97;5014345;28;20057;-66
2024/02/15 11:21:56;;;;;;;19.67;12.05;;;;;;;-145.63;51.92;38775.91;5038144;28;20037;-65